createdAt,value
2018-10-15T00:00:23.230Z,63.70
2018-10-15T00:05:27.079Z,63.70
2018-10-15T00:10:30.688Z,63.20
2018-10-15T00:15:34.365Z,62.80
2018-10-15T00:20:38.273Z,62.50
2018-10-15T00:25:41.873Z,63.00
2018-10-15T00:30:45.461Z,62.40
2018-10-15T00:35:49.073Z,61.50
2018-10-15T00:40:52.628Z,61.60
2018-10-15T00:45:56.227Z,62.30
2018-10-15T00:50:59.825Z,61.10
2018-10-15T00:56:04.255Z,61.20
2018-10-15T01:01:08.236Z,61.30
2018-10-15T01:06:11.862Z,61.60
2018-10-15T01:11:18.976Z,61.80
2018-10-15T01:16:22.735Z,61.90
2018-10-15T01:21:26.344Z,62.40
2018-10-15T01:26:35.234Z,61.80
2018-10-15T01:31:39.818Z,61.60
2018-10-15T01:36:43.462Z,64.40
2018-10-15T01:41:47.657Z,62.40
2018-10-15T01:46:51.295Z,62.60
2018-10-15T01:51:54.882Z,63.30
2018-10-15T01:57:02.066Z,62.40
2018-10-15T02:02:06.370Z,61.30
2018-10-15T02:07:10.656Z,62.30
2018-10-15T02:12:14.615Z,63.80
2018-10-15T02:17:18.217Z,63.50
2018-10-15T02:22:22.144Z,62.60
2018-10-15T02:27:27.139Z,61.90
2018-10-15T02:32:30.864Z,61.70
2018-10-15T02:37:34.707Z,63.10
2018-10-15T02:42:38.902Z,62.80
2018-10-15T02:47:42.513Z,62.30
2018-10-15T02:52:46.122Z,61.40
2018-10-15T02:57:50.053Z,62.00
2018-10-15T03:02:53.724Z,63.00
2018-10-15T03:07:57.628Z,62.70
2018-10-15T03:13:01.460Z,62.40
2018-10-15T03:18:05.407Z,62.90
2018-10-15T03:23:09.049Z,63.10
2018-10-15T03:28:14.333Z,63.60
2018-10-15T03:33:17.913Z,63.80
2018-10-15T03:38:21.845Z,63.00
2018-10-15T03:43:25.421Z,63.40
2018-10-15T03:48:29.063Z,63.20
2018-10-15T03:53:32.920Z,64.80
2018-10-15T03:58:36.523Z,64.50
2018-10-15T04:03:40.147Z,63.90
2018-10-15T04:08:43.735Z,64.60
2018-10-15T04:13:47.738Z,65.10
2018-10-15T04:18:51.760Z,65.10
2018-10-15T04:23:55.326Z,63.40
2018-10-15T04:28:58.950Z,63.80
2018-10-15T04:34:02.732Z,63.70
2018-10-15T04:39:09.335Z,63.20
2018-10-15T04:44:12.973Z,63.00
2018-10-15T04:49:16.977Z,64.20
2018-10-15T04:54:20.453Z,63.70
2018-10-15T04:59:24.063Z,63.20
2018-10-15T05:04:27.790Z,64.40
2018-10-15T05:09:31.692Z,66.90
2018-10-15T05:14:35.290Z,68.70
2018-10-15T05:19:39.179Z,68.90
2018-10-15T05:24:43.193Z,67.30
2018-10-15T05:29:46.789Z,66.20
2018-10-15T05:34:50.391Z,65.20
2018-10-15T05:39:54.626Z,64.70
2018-10-15T05:44:58.375Z,64.70
2018-10-15T05:50:01.991Z,66.90
2018-10-15T05:55:07.277Z,67.10
2018-10-15T06:00:12.909Z,67.30
2018-10-15T06:05:18.094Z,67.50
2018-10-15T06:10:21.727Z,66.70
2018-10-15T06:15:28.448Z,65.10
2018-10-15T06:20:33.995Z,64.60
2018-10-15T06:25:37.640Z,66.40
2018-10-15T06:30:41.260Z,66.00
2018-10-15T06:35:44.867Z,65.70
2018-10-15T06:40:48.487Z,66.40
2018-10-15T06:45:52.128Z,67.00
2018-10-15T06:50:55.767Z,67.00
2018-10-15T06:55:59.379Z,66.70
2018-10-15T07:01:03.000Z,66.20
2018-10-15T07:06:07.117Z,66.10
2018-10-15T07:16:19.851Z,65.50
2018-10-15T07:21:23.775Z,66.30
2018-10-15T07:26:27.436Z,65.90
2018-10-15T07:31:32.581Z,65.30
2018-10-15T07:36:39.712Z,65.10
2018-10-15T07:41:44.018Z,64.30
2018-10-15T07:46:47.637Z,63.60
2018-10-15T07:51:51.219Z,64.90
2018-10-15T07:56:56.708Z,66.20
2018-10-15T08:02:00.335Z,66.30
2018-10-15T08:07:04.056Z,66.30
2018-10-15T08:12:08.403Z,66.90
2018-10-15T08:17:12.227Z,67.20
2018-10-15T08:22:16.362Z,65.20
2018-10-15T08:27:20.043Z,64.30
2018-10-15T08:32:23.643Z,64.00
2018-10-15T08:37:27.638Z,62.60
2018-10-15T08:42:31.255Z,61.30
2018-10-15T08:47:34.831Z,60.20
2018-10-15T08:52:38.777Z,59.80
2018-10-15T08:57:42.407Z,59.00
2018-10-15T09:02:49.091Z,59.00
2018-10-15T09:07:52.852Z,57.70
2018-10-15T09:12:58.290Z,55.20
2018-10-15T09:18:02.073Z,50.70
2018-10-15T09:23:05.800Z,45.10
2018-10-15T09:28:09.402Z,41.40
2018-10-15T09:33:13.077Z,36.60
2018-10-15T09:38:17.193Z,33.80
2018-10-15T09:43:21.041Z,32.20
2018-10-15T09:48:24.974Z,32.30
2018-10-15T09:53:28.714Z,30.60
2018-10-15T09:58:32.536Z,30.60
2018-10-15T10:03:36.164Z,30.40
2018-10-15T10:08:40.539Z,30.80
2018-10-15T10:13:45.901Z,30.10
2018-10-15T10:18:49.575Z,29.50
2018-10-15T10:23:57.299Z,30.10
2018-10-15T10:29:01.069Z,30.70
2018-10-15T10:34:22.737Z,31.20
2018-10-15T10:39:27.122Z,32.00
2018-10-15T10:44:30.735Z,34.00
2018-10-15T10:49:34.347Z,34.30
2018-10-15T10:54:38.369Z,35.10
2018-10-15T10:59:41.945Z,36.90
2018-10-15T11:04:45.871Z,36.50
2018-10-15T11:09:49.632Z,36.60
2018-10-15T11:14:53.258Z,36.30
2018-10-15T11:19:56.917Z,36.00
2018-10-15T11:25:03.209Z,34.20
2018-10-15T11:30:07.446Z,34.20
2018-10-15T11:35:11.687Z,32.30
2018-10-15T11:40:15.253Z,32.80
2018-10-15T11:45:19.643Z,32.10
2018-10-15T11:55:26.511Z,32.50
2018-10-15T12:00:30.527Z,31.20
2018-10-15T12:05:34.224Z,29.60
2018-10-15T12:15:41.180Z,27.80
2018-10-15T12:25:48.217Z,26.60
2018-10-15T12:30:51.841Z,24.50
2018-10-15T12:35:55.441Z,23.80
2018-10-15T12:40:59.087Z,23.50
2018-10-15T12:46:02.706Z,25.00
2018-10-15T12:51:06.338Z,22.60
2018-10-15T12:56:10.515Z,21.10
2018-10-15T13:01:14.106Z,21.60
2018-10-15T13:06:18.296Z,20.60
2018-10-15T13:11:21.910Z,20.80
2018-10-15T13:16:28.385Z,20.60
2018-10-15T13:21:32.509Z,20.80
2018-10-15T13:26:36.279Z,22.10
2018-10-15T13:41:46.700Z,20.70
2018-10-15T13:46:50.323Z,20.60
2018-10-15T13:51:54.704Z,20.20
2018-10-15T13:56:58.684Z,20.40
2018-10-15T14:02:02.418Z,19.90
2018-10-15T14:07:06.624Z,20.50
2018-10-15T14:17:13.644Z,20.30
2018-10-15T14:22:17.223Z,20.10
2018-10-15T14:27:24.874Z,20.40
2018-10-15T14:42:43.201Z,19.70
2018-10-15T14:47:49.488Z,19.70
2018-10-15T14:52:54.092Z,19.70
2018-10-15T14:57:57.813Z,19.40
2018-10-15T15:03:01.442Z,20.00
2018-10-15T15:08:05.616Z,20.40
2018-10-15T15:13:20.578Z,20.40
2018-10-15T15:18:26.464Z,20.70
2018-10-15T15:23:33.108Z,20.90
2018-10-15T15:28:39.453Z,20.80
2018-10-15T15:33:43.389Z,20.40
2018-10-15T15:49:06.320Z,22.00
2018-10-15T15:54:09.929Z,22.40
2018-10-15T15:59:16.289Z,24.70
2018-10-15T16:04:19.960Z,25.90
2018-10-15T16:14:38.966Z,27.00
2018-10-15T16:19:42.671Z,28.30
2018-10-15T16:24:46.365Z,29.30
2018-10-15T16:29:50.028Z,31.00
2018-10-15T16:34:54.367Z,31.80
2018-10-15T16:39:57.989Z,33.50
2018-10-15T16:50:06.366Z,35.00
2018-10-15T16:55:13.623Z,36.00
2018-10-15T17:00:17.320Z,36.60
2018-10-15T17:05:21.723Z,37.10
2018-10-15T17:15:28.557Z,37.80
2018-10-15T17:20:33.202Z,38.80
2018-10-15T17:25:36.916Z,39.60
2018-10-15T17:30:40.581Z,40.20
2018-10-15T17:40:55.208Z,40.10
2018-10-15T17:45:59.412Z,40.50
2018-10-15T17:51:03.053Z,40.20
2018-10-15T17:56:06.675Z,40.90
2018-10-15T18:01:11.486Z,41.40
2018-10-15T18:11:18.826Z,42.40
2018-10-15T18:16:22.612Z,42.10
2018-10-15T18:21:26.303Z,41.80
2018-10-15T18:26:31.181Z,41.40
2018-10-15T18:31:35.583Z,41.90
2018-10-15T18:41:42.611Z,42.60
2018-10-15T18:46:46.253Z,43.00
2018-10-15T18:51:50.276Z,43.20
2018-10-15T19:01:58.482Z,44.10
2018-10-15T19:07:02.958Z,45.30
2018-10-15T19:12:09.072Z,46.00
2018-10-15T19:17:13.175Z,46.20
2018-10-15T19:22:17.376Z,46.50
2018-10-15T19:27:20.985Z,47.30
2018-10-15T19:37:31.877Z,47.90
2018-10-15T19:42:35.488Z,48.40
2018-10-15T19:47:39.235Z,48.50
2018-10-15T19:52:43.022Z,49.10
2018-10-15T19:57:46.801Z,49.40
2018-10-15T20:02:50.657Z,49.80
2018-10-15T20:07:54.482Z,50.00
2018-10-15T20:12:58.939Z,50.30
2018-10-15T20:18:02.930Z,50.80
2018-10-15T20:23:06.920Z,50.30
2018-10-15T20:33:14.235Z,50.90
2018-10-15T20:38:18.283Z,51.10
2018-10-15T20:43:22.181Z,51.30
2018-10-15T20:48:26.052Z,51.50
2018-10-15T20:53:29.857Z,51.60
2018-10-15T20:58:33.733Z,52.10
2018-10-15T21:03:37.492Z,51.70
2018-10-15T21:08:41.355Z,52.30
2018-10-15T21:13:45.251Z,52.00
2018-10-15T21:18:49.240Z,51.90
2018-10-15T21:23:53.220Z,52.50
2018-10-15T21:28:57.094Z,52.50
2018-10-15T21:34:01.010Z,52.70
2018-10-15T21:39:08.660Z,52.50
2018-10-15T21:44:12.279Z,52.80
2018-10-15T21:49:16.047Z,53.20
2018-10-15T21:54:20.072Z,53.60
2018-10-15T21:59:23.843Z,54.00
2018-10-15T22:04:27.736Z,53.90
2018-10-15T22:09:31.304Z,54.10
2018-10-15T22:14:36.185Z,54.00
2018-10-15T22:19:39.932Z,53.80
2018-10-15T22:24:43.513Z,54.10
2018-10-15T22:29:47.127Z,54.30
2018-10-15T22:34:51.083Z,54.80
2018-10-15T22:39:54.676Z,55.30
2018-10-15T22:44:58.256Z,55.60
2018-10-15T22:50:01.910Z,56.00
2018-10-15T22:55:07.495Z,55.40
2018-10-15T23:00:19.997Z,56.50
2018-10-15T23:05:23.627Z,57.30
2018-10-15T23:10:30.099Z,56.80
2018-10-15T23:15:34.889Z,57.20
2018-10-15T23:20:38.474Z,57.10
2018-10-15T23:25:42.055Z,56.10
2018-10-15T23:30:45.659Z,58.30
2018-10-15T23:35:49.212Z,57.70
2018-10-15T23:40:52.803Z,56.60
2018-10-15T23:45:56.454Z,57.30
2018-10-15T23:51:00.675Z,57.50
2018-10-15T23:56:04.990Z,57.90
